sensor_id;sensor_type;location;lat;lon;timestamp;P1;durP1;ratioP1;P2;durP2;ratioP2
3000;SDS011;1510;51.072;6.678;2023-05-07T00:01:40;841.77;;;764.20;;
3000;SDS011;1510;51.072;6.678;2023-05-07T00:04:07;849.07;;;770.70;;
3000;SDS011;1510;51.072;6.678;2023-05-07T00:06:35;836.63;;;758.50;;
3000;SDS011;1510;51.072;6.678;2023-05-07T00:09:03;845.00;;;766.17;;
3000;SDS011;1510;51.072;6.678;2023-05-07T00:11:30;853.47;;;774.20;;
3000;SDS011;1510;51.072;6.678;2023-05-07T00:13:57;850.90;;;771.53;;
3000;SDS011;1510;51.072;6.678;2023-05-07T00:16:24;835.33;;;755.03;;
3000;SDS011;1510;51.072;6.678;2023-05-07T00:18:51;836.33;;;753.93;;
3000;SDS011;1510;51.072;6.678;2023-05-07T00:21:18;844.73;;;761.70;;
3000;SDS011;1510;51.072;6.678;2023-05-07T00:23:46;849.33;;;765.67;;
3000;SDS011;1510;51.072;6.678;2023-05-07T00:26:14;836.90;;;752.87;;
3000;SDS011;1510;51.072;6.678;2023-05-07T00:28:42;837.80;;;753.50;;
3000;SDS011;1510;51.072;6.678;2023-05-07T00:31:09;843.73;;;758.23;;
3000;SDS011;1510;51.072;6.678;2023-05-07T00:33:35;841.53;;;755.50;;
3000;SDS011;1510;51.072;6.678;2023-05-07T00:36:04;828.13;;;742.10;;
3000;SDS011;1510;51.072;6.678;2023-05-07T00:38:31;817.20;;;731.23;;
3000;SDS011;1510;51.072;6.678;2023-05-07T00:40:58;833.60;;;747.37;;
3000;SDS011;1510;51.072;6.678;2023-05-07T00:43:26;828.00;;;741.60;;
3000;SDS011;1510;51.072;6.678;2023-05-07T00:45:53;826.57;;;739.20;;
3000;SDS011;1510;51.072;6.678;2023-05-07T00:48:21;835.30;;;746.80;;
3000;SDS011;1510;51.072;6.678;2023-05-07T00:50:49;834.23;;;746.53;;
3000;SDS011;1510;51.072;6.678;2023-05-07T00:53:16;846.00;;;757.67;;
3000;SDS011;1510;51.072;6.678;2023-05-07T00:55:43;823.80;;;737.60;;
3000;SDS011;1510;51.072;6.678;2023-05-07T00:58:10;825.17;;;739.50;;
3000;SDS011;1510;51.072;6.678;2023-05-07T01:00:38;825.30;;;738.53;;
3000;SDS011;1510;51.072;6.678;2023-05-07T01:03:05;830.80;;;743.27;;
3000;SDS011;1510;51.072;6.678;2023-05-07T01:05:32;815.17;;;728.60;;
3000;SDS011;1510;51.072;6.678;2023-05-07T01:07:59;805.33;;;719.60;;
3000;SDS011;1510;51.072;6.678;2023-05-07T01:10:27;841.60;;;754.73;;
3000;SDS011;1510;51.072;6.678;2023-05-07T01:12:55;838.90;;;752.03;;
3000;SDS011;1510;51.072;6.678;2023-05-07T01:15:24;826.83;;;740.43;;
3000;SDS011;1510;51.072;6.678;2023-05-07T01:17:53;825.57;;;739.57;;
3000;SDS011;1510;51.072;6.678;2023-05-07T01:20:20;828.10;;;742.10;;
3000;SDS011;1510;51.072;6.678;2023-05-07T01:22:48;828.10;;;743.03;;
3000;SDS011;1510;51.072;6.678;2023-05-07T01:25:16;814.13;;;730.23;;
3000;SDS011;1510;51.072;6.678;2023-05-07T01:27:43;814.40;;;730.97;;
3000;SDS011;1510;51.072;6.678;2023-05-07T01:30:11;824.33;;;741.53;;
3000;SDS011;1510;51.072;6.678;2023-05-07T01:32:40;828.50;;;746.50;;
3000;SDS011;1510;51.072;6.678;2023-05-07T01:35:09;822.30;;;740.67;;
3000;SDS011;1510;51.072;6.678;2023-05-07T01:37:38;799.07;;;718.87;;
3000;SDS011;1510;51.072;6.678;2023-05-07T01:40:07;800.27;;;719.57;;
3000;SDS011;1510;51.072;6.678;2023-05-07T01:42:35;793.60;;;713.60;;
3000;SDS011;1510;51.072;6.678;2023-05-07T01:45:02;808.60;;;728.80;;
3000;SDS011;1510;51.072;6.678;2023-05-07T01:47:30;795.97;;;716.57;;
3000;SDS011;1510;51.072;6.678;2023-05-07T01:49:57;807.37;;;727.03;;
3000;SDS011;1510;51.072;6.678;2023-05-07T01:52:24;811.23;;;731.30;;
3000;SDS011;1510;51.072;6.678;2023-05-07T01:54:51;810.60;;;730.80;;
3000;SDS011;1510;51.072;6.678;2023-05-07T01:57:19;804.23;;;724.17;;
3000;SDS011;1510;51.072;6.678;2023-05-07T01:59:46;822.83;;;742.00;;
3000;SDS011;1510;51.072;6.678;2023-05-07T02:02:13;817.57;;;736.50;;
3000;SDS011;1510;51.072;6.678;2023-05-07T02:04:40;809.67;;;728.13;;
3000;SDS011;1510;51.072;6.678;2023-05-07T02:07:07;803.57;;;721.43;;
3000;SDS011;1510;51.072;6.678;2023-05-07T02:09:34;814.47;;;730.37;;
3000;SDS011;1510;51.072;6.678;2023-05-07T02:12:00;821.37;;;739.40;;
3000;SDS011;1510;51.072;6.678;2023-05-07T02:14:29;808.33;;;726.20;;
3000;SDS011;1510;51.072;6.678;2023-05-07T02:16:56;805.97;;;721.77;;
3000;SDS011;1510;51.072;6.678;2023-05-07T02:19:23;803.83;;;718.63;;
3000;SDS011;1510;51.072;6.678;2023-05-07T02:21:50;808.27;;;722.77;;
3000;SDS011;1510;51.072;6.678;2023-05-07T02:24:18;818.67;;;733.37;;
3000;SDS011;1510;51.072;6.678;2023-05-07T02:26:45;813.97;;;727.57;;
3000;SDS011;1510;51.072;6.678;2023-05-07T02:29:12;821.83;;;733.90;;
3000;SDS011;1510;51.072;6.678;2023-05-07T02:31:41;824.87;;;736.70;;
3000;SDS011;1510;51.072;6.678;2023-05-07T02:34:09;826.00;;;736.80;;
3000;SDS011;1510;51.072;6.678;2023-05-07T02:36:36;814.57;;;726.43;;
3000;SDS011;1510;51.072;6.678;2023-05-07T02:39:03;840.37;;;750.97;;
3000;SDS011;1510;51.072;6.678;2023-05-07T02:41:30;832.20;;;741.90;;
3000;SDS011;1510;51.072;6.678;2023-05-07T02:43:57;830.73;;;740.97;;
3000;SDS011;1510;51.072;6.678;2023-05-07T02:46:24;841.47;;;751.00;;
3000;SDS011;1510;51.072;6.678;2023-05-07T02:48:52;839.40;;;748.70;;
3000;SDS011;1510;51.072;6.678;2023-05-07T02:51:19;831.37;;;741.47;;
3000;SDS011;1510;51.072;6.678;2023-05-07T02:53:47;814.20;;;725.30;;
3000;SDS011;1510;51.072;6.678;2023-05-07T02:56:14;801.47;;;713.17;;
3000;SDS011;1510;51.072;6.678;2023-05-07T02:58:41;785.37;;;686.83;;
3000;SDS011;1510;51.072;6.678;2023-05-07T03:01:08;789.33;;;689.97;;
3000;SDS011;1510;51.072;6.678;2023-05-07T03:03:35;789.03;;;696.87;;
3000;SDS011;1510;51.072;6.678;2023-05-07T03:06:04;794.87;;;693.40;;
3000;SDS011;1510;51.072;6.678;2023-05-07T03:08:31;802.67;;;692.97;;
3000;SDS011;1510;51.072;6.678;2023-05-07T03:10:58;811.77;;;709.80;;
3000;SDS011;1510;51.072;6.678;2023-05-07T03:13:26;811.97;;;701.93;;
3000;SDS011;1510;51.072;6.678;2023-05-07T03:15:53;810.17;;;696.03;;
3000;SDS011;1510;51.072;6.678;2023-05-07T03:18:21;801.27;;;692.27;;
3000;SDS011;1510;51.072;6.678;2023-05-07T03:20:48;801.27;;;683.87;;
3000;SDS011;1510;51.072;6.678;2023-05-07T03:23:17;802.07;;;674.37;;
3000;SDS011;1510;51.072;6.678;2023-05-07T03:25:44;800.50;;;682.50;;
3000;SDS011;1510;51.072;6.678;2023-05-07T03:28:11;805.80;;;680.60;;
3000;SDS011;1510;51.072;6.678;2023-05-07T03:30:38;804.10;;;684.70;;
3000;SDS011;1510;51.072;6.678;2023-05-07T03:33:05;790.83;;;675.77;;
3000;SDS011;1510;51.072;6.678;2023-05-07T03:35:32;782.40;;;675.10;;
3000;SDS011;1510;51.072;6.678;2023-05-07T03:38:00;777.70;;;670.77;;
3000;SDS011;1510;51.072;6.678;2023-05-07T03:40:29;783.30;;;681.20;;
3000;SDS011;1510;51.072;6.678;2023-05-07T03:42:55;784.27;;;681.07;;
3000;SDS011;1510;51.072;6.678;2023-05-07T03:45:22;803.43;;;675.57;;
3000;SDS011;1510;51.072;6.678;2023-05-07T03:47:49;818.50;;;677.10;;
3000;SDS011;1510;51.072;6.678;2023-05-07T03:50:16;818.57;;;677.13;;
3000;SDS011;1510;51.072;6.678;2023-05-07T03:52:43;815.57;;;668.40;;
3000;SDS011;1510;51.072;6.678;2023-05-07T03:55:10;819.37;;;661.50;;
3000;SDS011;1510;51.072;6.678;2023-05-07T03:57:38;818.47;;;668.77;;
3000;SDS011;1510;51.072;6.678;2023-05-07T04:00:05;820.67;;;683.70;;
3000;SDS011;1510;51.072;6.678;2023-05-07T04:02:34;822.83;;;703.07;;
3000;SDS011;1510;51.072;6.678;2023-05-07T04:05:00;829.07;;;697.90;;
3000;SDS011;1510;51.072;6.678;2023-05-07T04:07:27;818.33;;;687.70;;
3000;SDS011;1510;51.072;6.678;2023-05-07T04:09:54;815.57;;;689.70;;
3000;SDS011;1510;51.072;6.678;2023-05-07T04:12:21;813.57;;;704.73;;
3000;SDS011;1510;51.072;6.678;2023-05-07T04:14:49;803.00;;;693.57;;
3000;SDS011;1510;51.072;6.678;2023-05-07T04:17:16;793.10;;;684.87;;
3000;SDS011;1510;51.072;6.678;2023-05-07T04:19:43;789.43;;;675.60;;
3000;SDS011;1510;51.072;6.678;2023-05-07T04:22:10;795.67;;;703.33;;
3000;SDS011;1510;51.072;6.678;2023-05-07T04:24:37;780.07;;;676.10;;
3000;SDS011;1510;51.072;6.678;2023-05-07T04:27:04;768.63;;;676.50;;
3000;SDS011;1510;51.072;6.678;2023-05-07T04:29:31;765.10;;;670.87;;
3000;SDS011;1510;51.072;6.678;2023-05-07T04:31:59;762.90;;;678.80;;
3000;SDS011;1510;51.072;6.678;2023-05-07T04:34:26;757.03;;;674.63;;
3000;SDS011;1510;51.072;6.678;2023-05-07T04:36:53;767.10;;;682.90;;
3000;SDS011;1510;51.072;6.678;2023-05-07T04:39:20;761.00;;;677.90;;
3000;SDS011;1510;51.072;6.678;2023-05-07T04:41:47;747.57;;;666.20;;
3000;SDS011;1510;51.072;6.678;2023-05-07T04:44:14;747.20;;;666.10;;
3000;SDS011;1510;51.072;6.678;2023-05-07T04:46:41;741.57;;;661.10;;
3000;SDS011;1510;51.072;6.678;2023-05-07T04:49:10;746.90;;;667.20;;
3000;SDS011;1510;51.072;6.678;2023-05-07T04:51:37;747.40;;;669.50;;
3000;SDS011;1510;51.072;6.678;2023-05-07T04:54:07;760.37;;;682.77;;
3000;SDS011;1510;51.072;6.678;2023-05-07T04:56:35;758.30;;;681.70;;
3000;SDS011;1510;51.072;6.678;2023-05-07T04:59:01;757.63;;;681.53;;
3000;SDS011;1510;51.072;6.678;2023-05-07T05:01:28;756.10;;;681.60;;
3000;SDS011;1510;51.072;6.678;2023-05-07T05:03:55;751.53;;;677.90;;
3000;SDS011;1510;51.072;6.678;2023-05-07T05:06:23;750.40;;;677.60;;
3000;SDS011;1510;51.072;6.678;2023-05-07T05:08:50;760.83;;;689.00;;
3000;SDS011;1510;51.072;6.678;2023-05-07T05:11:17;756.23;;;685.03;;
3000;SDS011;1510;51.072;6.678;2023-05-07T05:13:44;761.27;;;692.63;;
3000;SDS011;1510;51.072;6.678;2023-05-07T05:16:13;758.10;;;691.13;;
3000;SDS011;1510;51.072;6.678;2023-05-07T05:18:40;771.10;;;707.30;;
3000;SDS011;1510;51.072;6.678;2023-05-07T05:21:07;757.20;;;694.97;;
3000;SDS011;1510;51.072;6.678;2023-05-07T05:23:35;750.73;;;690.53;;
3000;SDS011;1510;51.072;6.678;2023-05-07T05:26:02;748.83;;;691.83;;
3000;SDS011;1510;51.072;6.678;2023-05-07T05:28:29;752.13;;;695.63;;
3000;SDS011;1510;51.072;6.678;2023-05-07T05:30:56;740.07;;;687.33;;
3000;SDS011;1510;51.072;6.678;2023-05-07T05:33:23;712.13;;;664.43;;
3000;SDS011;1510;51.072;6.678;2023-05-07T05:35:50;711.30;;;663.43;;
3000;SDS011;1510;51.072;6.678;2023-05-07T05:38:17;711.60;;;663.80;;
3000;SDS011;1510;51.072;6.678;2023-05-07T05:40:45;691.80;;;646.40;;
3000;SDS011;1510;51.072;6.678;2023-05-07T05:43:12;678.77;;;635.63;;
3000;SDS011;1510;51.072;6.678;2023-05-07T05:45:39;682.77;;;639.37;;
3000;SDS011;1510;51.072;6.678;2023-05-07T05:48:06;700.73;;;655.73;;
3000;SDS011;1510;51.072;6.678;2023-05-07T05:50:34;688.50;;;644.57;;
3000;SDS011;1510;51.072;6.678;2023-05-07T05:53:02;690.30;;;646.33;;
3000;SDS011;1510;51.072;6.678;2023-05-07T05:55:29;697.10;;;650.80;;
3000;SDS011;1510;51.072;6.678;2023-05-07T05:57:58;684.13;;;640.00;;
3000;SDS011;1510;51.072;6.678;2023-05-07T06:00:26;658.60;;;619.90;;
3000;SDS011;1510;51.072;6.678;2023-05-07T06:02:53;650.60;;;614.83;;
3000;SDS011;1510;51.072;6.678;2023-05-07T06:05:20;615.77;;;585.87;;
3000;SDS011;1510;51.072;6.678;2023-05-07T06:07:47;569.43;;;545.77;;
3000;SDS011;1510;51.072;6.678;2023-05-07T06:10:13;534.57;;;514.47;;
3000;SDS011;1510;51.072;6.678;2023-05-07T06:12:40;525.20;;;505.70;;
3000;SDS011;1510;51.072;6.678;2023-05-07T06:15:09;501.87;;;483.87;;
3000;SDS011;1510;51.072;6.678;2023-05-07T06:17:36;492.00;;;474.73;;
3000;SDS011;1510;51.072;6.678;2023-05-07T06:20:03;466.80;;;450.90;;
3000;SDS011;1510;51.072;6.678;2023-05-07T06:22:31;324.60;;;314.40;;
3000;SDS011;1510;51.072;6.678;2023-05-07T06:24:58;109.60;;;105.60;;
3000;SDS011;1510;51.072;6.678;2023-05-07T06:27:25;40.73;;;38.97;;
3000;SDS011;1510;51.072;6.678;2023-05-07T06:29:53;13.70;;;12.80;;
3000;SDS011;1510;51.072;6.678;2023-05-07T06:32:21;13.13;;;12.07;;
3000;SDS011;1510;51.072;6.678;2023-05-07T06:34:48;7.70;;;7.00;;
3000;SDS011;1510;51.072;6.678;2023-05-07T06:37:15;5.90;;;4.80;;
3000;SDS011;1510;51.072;6.678;2023-05-07T06:39:42;6.87;;;5.00;;
3000;SDS011;1510;51.072;6.678;2023-05-07T06:42:09;7.80;;;4.10;;
3000;SDS011;1510;51.072;6.678;2023-05-07T06:44:36;6.07;;;4.80;;
3000;SDS011;1510;51.072;6.678;2023-05-07T06:47:03;5.53;;;3.90;;
3000;SDS011;1510;51.072;6.678;2023-05-07T06:49:32;10.07;;;3.93;;
3000;SDS011;1510;51.072;6.678;2023-05-07T06:51:59;6.03;;;3.57;;
3000;SDS011;1510;51.072;6.678;2023-05-07T06:54:28;6.07;;;3.43;;
3000;SDS011;1510;51.072;6.678;2023-05-07T06:56:55;5.80;;;2.90;;
3000;SDS011;1510;51.072;6.678;2023-05-07T06:59:23;6.50;;;3.10;;
3000;SDS011;1510;51.072;6.678;2023-05-07T07:01:50;8.43;;;3.30;;
3000;SDS011;1510;51.072;6.678;2023-05-07T07:04:20;5.80;;;3.20;;
3000;SDS011;1510;51.072;6.678;2023-05-07T07:06:53;7.50;;;3.40;;
3000;SDS011;1510;51.072;6.678;2023-05-07T07:09:21;6.67;;;3.27;;
3000;SDS011;1510;51.072;6.678;2023-05-07T07:11:49;5.83;;;3.10;;
3000;SDS011;1510;51.072;6.678;2023-05-07T07:14:16;6.90;;;3.23;;
3000;SDS011;1510;51.072;6.678;2023-05-07T07:16:43;7.67;;;3.07;;
3000;SDS011;1510;51.072;6.678;2023-05-07T07:19:11;6.27;;;2.87;;
3000;SDS011;1510;51.072;6.678;2023-05-07T07:21:40;6.57;;;3.07;;
3000;SDS011;1510;51.072;6.678;2023-05-07T07:24:08;7.60;;;3.00;;
3000;SDS011;1510;51.072;6.678;2023-05-07T07:26:35;5.13;;;2.83;;
3000;SDS011;1510;51.072;6.678;2023-05-07T07:29:02;5.77;;;3.00;;
3000;SDS011;1510;51.072;6.678;2023-05-07T07:31:29;5.47;;;2.73;;
3000;SDS011;1510;51.072;6.678;2023-05-07T07:33:56;6.00;;;2.80;;
3000;SDS011;1510;51.072;6.678;2023-05-07T07:36:26;6.40;;;3.47;;
3000;SDS011;1510;51.072;6.678;2023-05-07T07:38:53;5.80;;;2.97;;
3000;SDS011;1510;51.072;6.678;2023-05-07T07:41:21;12.20;;;3.37;;
3000;SDS011;1510;51.072;6.678;2023-05-07T07:43:48;6.00;;;3.23;;
3000;SDS011;1510;51.072;6.678;2023-05-07T07:46:15;9.00;;;3.17;;
3000;SDS011;1510;51.072;6.678;2023-05-07T07:48:42;7.30;;;3.43;;
3000;SDS011;1510;51.072;6.678;2023-05-07T07:51:09;9.40;;;3.40;;
3000;SDS011;1510;51.072;6.678;2023-05-07T07:53:36;5.00;;;2.60;;
3000;SDS011;1510;51.072;6.678;2023-05-07T07:56:03;7.43;;;2.93;;
3000;SDS011;1510;51.072;6.678;2023-05-07T07:58:32;5.37;;;2.80;;
3000;SDS011;1510;51.072;6.678;2023-05-07T08:01:00;6.27;;;3.10;;
3000;SDS011;1510;51.072;6.678;2023-05-07T08:03:27;5.47;;;2.73;;
3000;SDS011;1510;51.072;6.678;2023-05-07T08:05:57;5.50;;;2.93;;
3000;SDS011;1510;51.072;6.678;2023-05-07T08:08:24;7.57;;;2.80;;
3000;SDS011;1510;51.072;6.678;2023-05-07T08:10:50;7.93;;;3.53;;
3000;SDS011;1510;51.072;6.678;2023-05-07T08:13:17;8.43;;;3.53;;
3000;SDS011;1510;51.072;6.678;2023-05-07T08:15:46;6.87;;;2.80;;
3000;SDS011;1510;51.072;6.678;2023-05-07T08:18:13;5.90;;;2.80;;
3000;SDS011;1510;51.072;6.678;2023-05-07T08:20:40;6.83;;;2.57;;
3000;SDS011;1510;51.072;6.678;2023-05-07T08:23:08;6.67;;;3.10;;
3000;SDS011;1510;51.072;6.678;2023-05-07T08:25:35;6.10;;;2.80;;
3000;SDS011;1510;51.072;6.678;2023-05-07T08:28:02;5.27;;;2.50;;
3000;SDS011;1510;51.072;6.678;2023-05-07T08:30:29;6.20;;;2.33;;
3000;SDS011;1510;51.072;6.678;2023-05-07T08:32:57;9.23;;;2.10;;
3000;SDS011;1510;51.072;6.678;2023-05-07T08:35:26;5.53;;;2.10;;
3000;SDS011;1510;51.072;6.678;2023-05-07T08:37:53;4.57;;;1.80;;
3000;SDS011;1510;51.072;6.678;2023-05-07T08:40:20;5.30;;;2.30;;
3000;SDS011;1510;51.072;6.678;2023-05-07T08:42:51;6.07;;;2.73;;
3000;SDS011;1510;51.072;6.678;2023-05-07T08:45:19;6.97;;;2.60;;
3000;SDS011;1510;51.072;6.678;2023-05-07T08:47:47;6.90;;;2.77;;
3000;SDS011;1510;51.072;6.678;2023-05-07T08:50:19;6.00;;;2.30;;
3000;SDS011;1510;51.072;6.678;2023-05-07T08:52:47;6.30;;;2.77;;
3000;SDS011;1510;51.072;6.678;2023-05-07T08:55:14;6.50;;;1.90;;
3000;SDS011;1510;51.072;6.678;2023-05-07T08:57:41;5.80;;;2.53;;
3000;SDS011;1510;51.072;6.678;2023-05-07T09:00:09;5.80;;;2.37;;
3000;SDS011;1510;51.072;6.678;2023-05-07T09:02:37;5.40;;;2.10;;
3000;SDS011;1510;51.072;6.678;2023-05-07T09:05:04;8.80;;;2.97;;
3000;SDS011;1510;51.072;6.678;2023-05-07T09:07:33;6.40;;;3.07;;
3000;SDS011;1510;51.072;6.678;2023-05-07T09:10:01;6.23;;;2.30;;
3000;SDS011;1510;51.072;6.678;2023-05-07T09:12:29;7.10;;;2.13;;
3000;SDS011;1510;51.072;6.678;2023-05-07T09:14:56;4.80;;;1.93;;
3000;SDS011;1510;51.072;6.678;2023-05-07T09:17:23;5.10;;;1.80;;
3000;SDS011;1510;51.072;6.678;2023-05-07T09:19:49;6.10;;;2.10;;
3000;SDS011;1510;51.072;6.678;2023-05-07T09:22:18;4.90;;;1.77;;
3000;SDS011;1510;51.072;6.678;2023-05-07T09:24:49;5.33;;;1.73;;
3000;SDS011;1510;51.072;6.678;2023-05-07T09:27:16;6.27;;;1.67;;
3000;SDS011;1510;51.072;6.678;2023-05-07T09:29:44;5.23;;;2.03;;
3000;SDS011;1510;51.072;6.678;2023-05-07T09:32:11;5.03;;;1.80;;
3000;SDS011;1510;51.072;6.678;2023-05-07T09:34:38;5.23;;;2.03;;
3000;SDS011;1510;51.072;6.678;2023-05-07T09:37:05;6.33;;;2.00;;
3000;SDS011;1510;51.072;6.678;2023-05-07T09:39:38;6.43;;;2.40;;
3000;SDS011;1510;51.072;6.678;2023-05-07T09:42:07;7.73;;;1.90;;
3000;SDS011;1510;51.072;6.678;2023-05-07T09:44:35;6.20;;;2.43;;
3000;SDS011;1510;51.072;6.678;2023-05-07T09:47:02;5.63;;;1.90;;
3000;SDS011;1510;51.072;6.678;2023-05-07T09:49:33;5.83;;;2.30;;
3000;SDS011;1510;51.072;6.678;2023-05-07T09:52:02;7.20;;;2.97;;
3000;SDS011;1510;51.072;6.678;2023-05-07T09:54:33;6.47;;;1.90;;
3000;SDS011;1510;51.072;6.678;2023-05-07T09:57:02;4.70;;;2.00;;
3000;SDS011;1510;51.072;6.678;2023-05-07T09:59:33;6.93;;;2.40;;
3000;SDS011;1510;51.072;6.678;2023-05-07T10:02:03;5.43;;;1.93;;
3000;SDS011;1510;51.072;6.678;2023-05-07T10:04:31;5.10;;;2.03;;
3000;SDS011;1510;51.072;6.678;2023-05-07T10:06:58;5.27;;;2.10;;
3000;SDS011;1510;51.072;6.678;2023-05-07T10:09:26;6.67;;;2.37;;
3000;SDS011;1510;51.072;6.678;2023-05-07T10:11:53;5.90;;;2.20;;
3000;SDS011;1510;51.072;6.678;2023-05-07T10:14:21;5.27;;;2.07;;
3000;SDS011;1510;51.072;6.678;2023-05-07T10:16:49;6.60;;;2.03;;
3000;SDS011;1510;51.072;6.678;2023-05-07T10:19:17;5.17;;;1.90;;
3000;SDS011;1510;51.072;6.678;2023-05-07T10:21:48;6.37;;;2.10;;
3000;SDS011;1510;51.072;6.678;2023-05-07T10:24:21;5.90;;;2.00;;
3000;SDS011;1510;51.072;6.678;2023-05-07T10:26:52;4.57;;;1.30;;
3000;SDS011;1510;51.072;6.678;2023-05-07T10:29:21;6.77;;;1.57;;
3000;SDS011;1510;51.072;6.678;2023-05-07T10:31:57;5.57;;;2.20;;
3000;SDS011;1510;51.072;6.678;2023-05-07T10:34:28;7.13;;;1.93;;
3000;SDS011;1510;51.072;6.678;2023-05-07T10:36:58;5.47;;;1.70;;
3000;SDS011;1510;51.072;6.678;2023-05-07T10:39:26;6.63;;;2.30;;
3000;SDS011;1510;51.072;6.678;2023-05-07T10:41:53;4.93;;;1.60;;
3000;SDS011;1510;51.072;6.678;2023-05-07T10:44:26;4.57;;;1.10;;
3000;SDS011;1510;51.072;6.678;2023-05-07T10:47:06;5.40;;;1.20;;
3000;SDS011;1510;51.072;6.678;2023-05-07T10:49:34;6.50;;;1.30;;
3000;SDS011;1510;51.072;6.678;2023-05-07T10:52:11;4.80;;;1.30;;
3000;SDS011;1510;51.072;6.678;2023-05-07T10:54:42;4.93;;;1.47;;
3000;SDS011;1510;51.072;6.678;2023-05-07T10:59:59;4.73;;;1.20;;
3000;SDS011;1510;51.072;6.678;2023-05-07T11:02:39;4.70;;;1.50;;
3000;SDS011;1510;51.072;6.678;2023-05-07T11:05:32;5.07;;;1.50;;
3000;SDS011;1510;51.072;6.678;2023-05-07T11:08:00;5.53;;;1.60;;
3000;SDS011;1510;51.072;6.678;2023-05-07T11:13:16;5.60;;;1.40;;
3000;SDS011;1510;51.072;6.678;2023-05-07T11:15:44;7.00;;;1.60;;
3000;SDS011;1510;51.072;6.678;2023-05-07T11:18:14;5.93;;;2.20;;
3000;SDS011;1510;51.072;6.678;2023-05-07T11:20:49;5.07;;;1.73;;
3000;SDS011;1510;51.072;6.678;2023-05-07T11:26:43;4.57;;;1.50;;
3000;SDS011;1510;51.072;6.678;2023-05-07T11:29:12;6.00;;;1.70;;
3000;SDS011;1510;51.072;6.678;2023-05-07T11:31:39;4.50;;;1.40;;
3000;SDS011;1510;51.072;6.678;2023-05-07T11:34:08;5.67;;;1.43;;
3000;SDS011;1510;51.072;6.678;2023-05-07T11:36:35;7.20;;;1.47;;
3000;SDS011;1510;51.072;6.678;2023-05-07T11:39:21;5.70;;;1.37;;
3000;SDS011;1510;51.072;6.678;2023-05-07T11:41:49;5.20;;;1.60;;
3000;SDS011;1510;51.072;6.678;2023-05-07T11:44:16;6.90;;;1.40;;
3000;SDS011;1510;51.072;6.678;2023-05-07T11:46:43;5.73;;;1.60;;
3000;SDS011;1510;51.072;6.678;2023-05-07T11:49:12;4.60;;;1.57;;
3000;SDS011;1510;51.072;6.678;2023-05-07T11:51:39;8.13;;;1.87;;
3000;SDS011;1510;51.072;6.678;2023-05-07T11:54:07;5.30;;;1.70;;
3000;SDS011;1510;51.072;6.678;2023-05-07T11:56:36;7.37;;;1.47;;
3000;SDS011;1510;51.072;6.678;2023-05-07T11:59:04;5.33;;;1.83;;
3000;SDS011;1510;51.072;6.678;2023-05-07T12:01:31;5.23;;;1.30;;
3000;SDS011;1510;51.072;6.678;2023-05-07T12:03:58;4.80;;;1.67;;
3000;SDS011;1510;51.072;6.678;2023-05-07T12:06:30;5.00;;;1.53;;
3000;SDS011;1510;51.072;6.678;2023-05-07T12:08:57;5.03;;;1.13;;
3000;SDS011;1510;51.072;6.678;2023-05-07T12:11:24;4.70;;;1.90;;
3000;SDS011;1510;51.072;6.678;2023-05-07T12:13:51;5.27;;;1.60;;
3000;SDS011;1510;51.072;6.678;2023-05-07T12:16:20;5.63;;;1.70;;
3000;SDS011;1510;51.072;6.678;2023-05-07T12:18:48;7.40;;;2.00;;
3000;SDS011;1510;51.072;6.678;2023-05-07T12:21:17;6.77;;;1.57;;
3000;SDS011;1510;51.072;6.678;2023-05-07T12:23:46;5.33;;;1.67;;
3000;SDS011;1510;51.072;6.678;2023-05-07T12:26:13;4.70;;;1.40;;
3000;SDS011;1510;51.072;6.678;2023-05-07T12:28:42;4.83;;;1.70;;
3000;SDS011;1510;51.072;6.678;2023-05-07T12:31:09;5.60;;;1.57;;
3000;SDS011;1510;51.072;6.678;2023-05-07T12:33:36;6.53;;;1.93;;
3000;SDS011;1510;51.072;6.678;2023-05-07T12:36:03;5.17;;;1.73;;
3000;SDS011;1510;51.072;6.678;2023-05-07T12:38:35;4.67;;;1.40;;
3000;SDS011;1510;51.072;6.678;2023-05-07T12:41:05;5.40;;;1.17;;
3000;SDS011;1510;51.072;6.678;2023-05-07T12:43:33;4.70;;;1.63;;
3000;SDS011;1510;51.072;6.678;2023-05-07T12:46:01;6.23;;;2.00;;
3000;SDS011;1510;51.072;6.678;2023-05-07T12:48:30;5.90;;;1.50;;
3000;SDS011;1510;51.072;6.678;2023-05-07T12:50:58;5.63;;;1.67;;
3000;SDS011;1510;51.072;6.678;2023-05-07T12:53:26;4.87;;;1.93;;
3000;SDS011;1510;51.072;6.678;2023-05-07T12:55:54;5.17;;;1.60;;
3000;SDS011;1510;51.072;6.678;2023-05-07T12:58:25;5.00;;;1.50;;
3000;SDS011;1510;51.072;6.678;2023-05-07T13:00:53;4.97;;;1.83;;
3000;SDS011;1510;51.072;6.678;2023-05-07T13:03:24;6.93;;;2.20;;
3000;SDS011;1510;51.072;6.678;2023-05-07T13:05:52;5.80;;;1.80;;
3000;SDS011;1510;51.072;6.678;2023-05-07T13:08:27;5.60;;;1.90;;
3000;SDS011;1510;51.072;6.678;2023-05-07T13:10:56;4.80;;;1.63;;
3000;SDS011;1510;51.072;6.678;2023-05-07T13:13:25;5.17;;;1.83;;
3000;SDS011;1510;51.072;6.678;2023-05-07T13:15:52;5.43;;;1.93;;
3000;SDS011;1510;51.072;6.678;2023-05-07T13:18:19;4.80;;;1.70;;
3000;SDS011;1510;51.072;6.678;2023-05-07T13:20:45;6.23;;;2.20;;
3000;SDS011;1510;51.072;6.678;2023-05-07T13:23:12;6.07;;;2.20;;
3000;SDS011;1510;51.072;6.678;2023-05-07T13:25:39;7.83;;;2.37;;
3000;SDS011;1510;51.072;6.678;2023-05-07T13:28:06;4.70;;;1.80;;
3000;SDS011;1510;51.072;6.678;2023-05-07T13:30:34;10.33;;;1.90;;
3000;SDS011;1510;51.072;6.678;2023-05-07T13:33:01;8.17;;;2.03;;
3000;SDS011;1510;51.072;6.678;2023-05-07T13:35:28;4.70;;;1.73;;
3000;SDS011;1510;51.072;6.678;2023-05-07T13:37:55;5.00;;;1.77;;
3000;SDS011;1510;51.072;6.678;2023-05-07T13:40:22;6.30;;;2.17;;
3000;SDS011;1510;51.072;6.678;2023-05-07T13:42:49;6.53;;;2.20;;
3000;SDS011;1510;51.072;6.678;2023-05-07T13:45:16;6.40;;;2.03;;
3000;SDS011;1510;51.072;6.678;2023-05-07T13:47:45;5.67;;;2.33;;
3000;SDS011;1510;51.072;6.678;2023-05-07T13:50:14;6.97;;;2.47;;
3000;SDS011;1510;51.072;6.678;2023-05-07T13:52:41;8.30;;;3.60;;
3000;SDS011;1510;51.072;6.678;2023-05-07T13:55:15;14.73;;;3.50;;
3000;SDS011;1510;51.072;6.678;2023-05-07T13:57:42;6.90;;;2.30;;
3000;SDS011;1510;51.072;6.678;2023-05-07T14:00:09;6.40;;;2.73;;
3000;SDS011;1510;51.072;6.678;2023-05-07T14:02:37;6.33;;;3.20;;
3000;SDS011;1510;51.072;6.678;2023-05-07T14:05:06;8.70;;;3.07;;
3000;SDS011;1510;51.072;6.678;2023-05-07T14:07:34;8.37;;;3.60;;
3000;SDS011;1510;51.072;6.678;2023-05-07T14:10:01;12.00;;;4.00;;
3000;SDS011;1510;51.072;6.678;2023-05-07T14:12:27;7.73;;;3.43;;
3000;SDS011;1510;51.072;6.678;2023-05-07T14:14:54;9.93;;;3.30;;
3000;SDS011;1510;51.072;6.678;2023-05-07T14:17:21;6.10;;;2.43;;
3000;SDS011;1510;51.072;6.678;2023-05-07T14:19:50;9.63;;;3.30;;
3000;SDS011;1510;51.072;6.678;2023-05-07T14:22:20;8.33;;;3.30;;
3000;SDS011;1510;51.072;6.678;2023-05-07T14:24:47;8.63;;;3.90;;
3000;SDS011;1510;51.072;6.678;2023-05-07T14:27:14;11.47;;;2.70;;
3000;SDS011;1510;51.072;6.678;2023-05-07T14:29:42;9.80;;;2.80;;
3000;SDS011;1510;51.072;6.678;2023-05-07T14:32:10;4.70;;;2.10;;
3000;SDS011;1510;51.072;6.678;2023-05-07T14:34:37;9.47;;;2.47;;
3000;SDS011;1510;51.072;6.678;2023-05-07T14:37:04;9.33;;;2.37;;
3000;SDS011;1510;51.072;6.678;2023-05-07T14:39:32;12.80;;;2.13;;
3000;SDS011;1510;51.072;6.678;2023-05-07T14:41:59;5.63;;;2.30;;
3000;SDS011;1510;51.072;6.678;2023-05-07T14:44:25;6.17;;;2.50;;
3000;SDS011;1510;51.072;6.678;2023-05-07T14:46:53;6.83;;;2.70;;
3000;SDS011;1510;51.072;6.678;2023-05-07T14:49:20;5.60;;;2.40;;
3000;SDS011;1510;51.072;6.678;2023-05-07T14:51:48;7.50;;;3.00;;
3000;SDS011;1510;51.072;6.678;2023-05-07T14:54:15;7.50;;;3.17;;
3000;SDS011;1510;51.072;6.678;2023-05-07T14:56:43;6.70;;;2.40;;
3000;SDS011;1510;51.072;6.678;2023-05-07T14:59:11;8.30;;;3.00;;
3000;SDS011;1510;51.072;6.678;2023-05-07T15:01:38;11.50;;;2.73;;
3000;SDS011;1510;51.072;6.678;2023-05-07T15:04:10;9.40;;;2.90;;